Terminal Aerodrome Forecast
Issued by NWS

Home | Current Version | Previous Version | Text Only | Print | Product List | Glossary On
Versions: 1 2 3 4 5 6 7 8 9 10 11 12 13 14 15 16 17 18 19 20 21 22 23 24 25 26 27 28
000
FTUS44 KOHX 190500
TAFCKV
TAF
KCKV 190520Z 1906/2006 04004KT P6SM SKC
     FM191000 00000KT 4SM BR SKC
      TEMPO 1911/1913 2SM BR
     FM191500 10004KT P6SM SCT040=

USA.gov is the U.S. government's official web portal to all federal, state and local government web resources and services.